sensor_id;sensor_type;location;lat;lon;timestamp;pressure;altitude;pressure_sealevel;temperature;humidity
25084;BME280;13075;55.682;37.564;2023-02-18T00:00:10;99590.25;;;-1.71;100.00
25084;BME280;13075;55.682;37.564;2023-02-18T00:02:36;99591.56;;;-2.10;100.00
25084;BME280;13075;55.682;37.564;2023-02-18T00:05:02;99599.19;;;-1.84;100.00
25084;BME280;13075;55.682;37.564;2023-02-18T00:07:28;99593.09;;;-1.85;100.00
25084;BME280;13075;55.682;37.564;2023-02-18T00:09:57;99580.00;;;-2.29;100.00
25084;BME280;13075;55.682;37.564;2023-02-18T00:12:23;99584.41;;;-2.41;100.00
25084;BME280;13075;55.682;37.564;2023-02-18T00:14:49;99582.97;;;-2.34;100.00
25084;BME280;13075;55.682;37.564;2023-02-18T00:17:14;99586.81;;;-1.94;100.00
25084;BME280;13075;55.682;37.564;2023-02-18T00:19:40;99582.50;;;-2.17;100.00
25084;BME280;13075;55.682;37.564;2023-02-18T00:22:06;99574.66;;;-2.28;100.00
25084;BME280;13075;55.682;37.564;2023-02-18T00:24:32;99570.47;;;-2.08;100.00
25084;BME280;13075;55.682;37.564;2023-02-18T00:26:57;99564.03;;;-1.93;100.00
25084;BME280;13075;55.682;37.564;2023-02-18T00:29:23;99572.13;;;-1.85;100.00
25084;BME280;13075;55.682;37.564;2023-02-18T00:31:51;99571.56;;;-2.11;100.00
25084;BME280;13075;55.682;37.564;2023-02-18T00:34:16;99567.16;;;-2.21;100.00
25084;BME280;13075;55.682;37.564;2023-02-18T00:36:42;99566.22;;;-2.09;100.00
25084;BME280;13075;55.682;37.564;2023-02-18T00:39:10;99556.69;;;-1.99;100.00
25084;BME280;13075;55.682;37.564;2023-02-18T00:41:38;99563.22;;;-2.05;100.00
25084;BME280;13075;55.682;37.564;2023-02-18T00:44:04;99552.22;;;-1.76;100.00
25084;BME280;13075;55.682;37.564;2023-02-18T00:46:31;99557.00;;;-1.93;100.00
25084;BME280;13075;55.682;37.564;2023-02-18T00:48:59;99548.72;;;-2.20;100.00
25084;BME280;13075;55.682;37.564;2023-02-18T00:51:25;99551.06;;;-2.06;100.00
25084;BME280;13075;55.682;37.564;2023-02-18T00:53:51;99548.31;;;-1.82;100.00
25084;BME280;13075;55.682;37.564;2023-02-18T00:56:17;99549.22;;;-1.72;100.00
25084;BME280;13075;55.682;37.564;2023-02-18T00:58:43;99546.53;;;-2.04;100.00
25084;BME280;13075;55.682;37.564;2023-02-18T01:01:09;99539.88;;;-2.19;100.00
25084;BME280;13075;55.682;37.564;2023-02-18T01:03:36;99532.13;;;-1.98;100.00
25084;BME280;13075;55.682;37.564;2023-02-18T01:06:03;99530.94;;;-2.05;100.00
25084;BME280;13075;55.682;37.564;2023-02-18T01:08:32;99522.59;;;-1.56;100.00
25084;BME280;13075;55.682;37.564;2023-02-18T01:10:58;99510.31;;;-1.99;100.00
25084;BME280;13075;55.682;37.564;2023-02-18T01:13:26;99510.44;;;-2.11;100.00
25084;BME280;13075;55.682;37.564;2023-02-18T01:15:52;99496.50;;;-2.01;100.00
25084;BME280;13075;55.682;37.564;2023-02-18T01:18:18;99492.50;;;-2.49;100.00
25084;BME280;13075;55.682;37.564;2023-02-18T01:20:44;99493.91;;;-2.89;100.00
25084;BME280;13075;55.682;37.564;2023-02-18T01:23:11;99483.94;;;-2.62;100.00
25084;BME280;13075;55.682;37.564;2023-02-18T01:25:37;99485.84;;;-2.53;100.00
25084;BME280;13075;55.682;37.564;2023-02-18T01:28:04;99478.69;;;-2.73;100.00
25084;BME280;13075;55.682;37.564;2023-02-18T01:30:30;99472.63;;;-2.85;100.00
25084;BME280;13075;55.682;37.564;2023-02-18T01:32:56;99466.06;;;-2.90;100.00
25084;BME280;13075;55.682;37.564;2023-02-18T01:35:22;99461.63;;;-3.01;100.00
25084;BME280;13075;55.682;37.564;2023-02-18T01:37:48;99454.28;;;-2.85;100.00
25084;BME280;13075;55.682;37.564;2023-02-18T01:40:18;99461.44;;;-2.87;100.00
25084;BME280;13075;55.682;37.564;2023-02-18T01:42:44;99454.06;;;-2.60;100.00
25084;BME280;13075;55.682;37.564;2023-02-18T01:48:03;99448.59;;;-2.90;100.00
25084;BME280;13075;55.682;37.564;2023-02-18T01:50:32;99435.13;;;-2.96;100.00
25084;BME280;13075;55.682;37.564;2023-02-18T01:52:59;99438.47;;;-2.94;100.00
25084;BME280;13075;55.682;37.564;2023-02-18T01:55:26;99432.03;;;-3.01;100.00
25084;BME280;13075;55.682;37.564;2023-02-18T01:57:52;99424.56;;;-2.95;100.00
25084;BME280;13075;55.682;37.564;2023-02-18T02:00:19;99430.84;;;-2.97;100.00
25084;BME280;13075;55.682;37.564;2023-02-18T02:02:51;99425.72;;;-2.66;100.00
25084;BME280;13075;55.682;37.564;2023-02-18T02:05:19;99420.50;;;-2.77;100.00
25084;BME280;13075;55.682;37.564;2023-02-18T02:07:46;99417.88;;;-2.66;100.00
25084;BME280;13075;55.682;37.564;2023-02-18T02:10:13;99417.28;;;-2.69;100.00
25084;BME280;13075;55.682;37.564;2023-02-18T02:26:33;99397.41;;;-2.83;100.00
25084;BME280;13075;55.682;37.564;2023-02-18T02:35:00;99402.53;;;-2.81;100.00
25084;BME280;13075;55.682;37.564;2023-02-18T02:37:41;99394.13;;;-2.20;100.00
25084;BME280;13075;55.682;37.564;2023-02-18T02:40:23;99393.00;;;-2.60;100.00
25084;BME280;13075;55.682;37.564;2023-02-18T02:46:11;99393.16;;;-2.19;100.00
25084;BME280;13075;55.682;37.564;2023-02-18T02:51:58;99368.63;;;-2.18;100.00
25084;BME280;13075;55.682;37.564;2023-02-18T02:54:27;99373.75;;;-2.92;100.00
25084;BME280;13075;55.682;37.564;2023-02-18T02:59:35;99356.03;;;-3.11;100.00
25084;BME280;13075;55.682;37.564;2023-02-18T03:10:44;99351.88;;;-3.13;100.00
25084;BME280;13075;55.682;37.564;2023-02-18T03:18:44;99344.84;;;-3.02;100.00
25084;BME280;13075;55.682;37.564;2023-02-18T03:21:24;99330.81;;;-3.34;100.00
25084;BME280;13075;55.682;37.564;2023-02-18T03:26:50;99321.88;;;-2.76;100.00
25084;BME280;13075;55.682;37.564;2023-02-18T03:29:17;99322.38;;;-3.04;100.00
25084;BME280;13075;55.682;37.564;2023-02-18T03:31:55;99330.44;;;-3.63;100.00
25084;BME280;13075;55.682;37.564;2023-02-18T03:34:29;99314.41;;;-4.04;100.00
25084;BME280;13075;55.682;37.564;2023-02-18T03:36:58;99316.13;;;-3.81;100.00
25084;BME280;13075;55.682;37.564;2023-02-18T03:39:27;99302.13;;;-3.69;100.00
25084;BME280;13075;55.682;37.564;2023-02-18T03:41:53;99297.75;;;-3.80;100.00
25084;BME280;13075;55.682;37.564;2023-02-18T03:44:19;99299.81;;;-4.30;100.00
25084;BME280;13075;55.682;37.564;2023-02-18T03:46:45;99299.19;;;-3.42;100.00
25084;BME280;13075;55.682;37.564;2023-02-18T03:49:12;99288.75;;;-3.42;100.00
25084;BME280;13075;55.682;37.564;2023-02-18T03:51:39;99285.06;;;-3.40;100.00
25084;BME280;13075;55.682;37.564;2023-02-18T03:54:06;99283.38;;;-3.63;100.00
25084;BME280;13075;55.682;37.564;2023-02-18T03:56:33;99272.78;;;-3.84;100.00
25084;BME280;13075;55.682;37.564;2023-02-18T03:58:59;99270.91;;;-3.15;100.00
25084;BME280;13075;55.682;37.564;2023-02-18T04:01:25;99273.22;;;-2.79;100.00
25084;BME280;13075;55.682;37.564;2023-02-18T04:03:50;99265.47;;;-2.80;100.00
25084;BME280;13075;55.682;37.564;2023-02-18T04:06:16;99265.53;;;-2.60;100.00
25084;BME280;13075;55.682;37.564;2023-02-18T04:08:41;99270.03;;;-3.93;100.00
25084;BME280;13075;55.682;37.564;2023-02-18T04:11:07;99260.81;;;-3.64;100.00
25084;BME280;13075;55.682;37.564;2023-02-18T04:13:32;99255.47;;;-3.51;100.00
25084;BME280;13075;55.682;37.564;2023-02-18T04:15:58;99262.94;;;-3.69;100.00
25084;BME280;13075;55.682;37.564;2023-02-18T04:18:24;99249.06;;;-3.36;100.00
25084;BME280;13075;55.682;37.564;2023-02-18T04:20:49;99249.75;;;-3.23;100.00
25084;BME280;13075;55.682;37.564;2023-02-18T04:23:16;99233.72;;;-3.41;100.00
25084;BME280;13075;55.682;37.564;2023-02-18T04:25:41;99229.09;;;-3.59;100.00
25084;BME280;13075;55.682;37.564;2023-02-18T04:28:09;99228.34;;;-3.17;100.00
25084;BME280;13075;55.682;37.564;2023-02-18T04:30:38;99216.31;;;-3.20;100.00
25084;BME280;13075;55.682;37.564;2023-02-18T04:33:03;99213.84;;;-2.78;100.00
25084;BME280;13075;55.682;37.564;2023-02-18T04:35:29;99215.09;;;-2.62;100.00
25084;BME280;13075;55.682;37.564;2023-02-18T04:37:55;99197.06;;;-2.76;100.00
25084;BME280;13075;55.682;37.564;2023-02-18T04:40:20;99200.53;;;-2.86;100.00
25084;BME280;13075;55.682;37.564;2023-02-18T04:42:46;99195.69;;;-2.59;100.00
25084;BME280;13075;55.682;37.564;2023-02-18T04:45:11;99201.00;;;-2.81;100.00
25084;BME280;13075;55.682;37.564;2023-02-18T04:47:37;99207.97;;;-2.71;100.00
25084;BME280;13075;55.682;37.564;2023-02-18T04:50:03;99200.47;;;-2.96;100.00
25084;BME280;13075;55.682;37.564;2023-02-18T04:52:29;99213.25;;;-3.25;100.00
25084;BME280;13075;55.682;37.564;2023-02-18T04:54:55;99204.28;;;-3.00;100.00
25084;BME280;13075;55.682;37.564;2023-02-18T04:57:20;99197.81;;;-2.53;100.00
25084;BME280;13075;55.682;37.564;2023-02-18T04:59:46;99200.69;;;-2.35;100.00
25084;BME280;13075;55.682;37.564;2023-02-18T05:02:11;99193.13;;;-1.88;100.00
25084;BME280;13075;55.682;37.564;2023-02-18T05:04:37;99202.03;;;-2.41;100.00
25084;BME280;13075;55.682;37.564;2023-02-18T05:07:02;99204.41;;;-2.70;100.00
25084;BME280;13075;55.682;37.564;2023-02-18T05:09:28;99192.44;;;-2.83;100.00
25084;BME280;13075;55.682;37.564;2023-02-18T05:11:54;99182.44;;;-2.78;100.00
25084;BME280;13075;55.682;37.564;2023-02-18T05:14:19;99183.38;;;-3.11;100.00
25084;BME280;13075;55.682;37.564;2023-02-18T05:16:45;99178.69;;;-3.39;100.00
25084;BME280;13075;55.682;37.564;2023-02-18T05:19:14;99173.56;;;-3.30;100.00
25084;BME280;13075;55.682;37.564;2023-02-18T05:21:41;99180.91;;;-3.24;100.00
25084;BME280;13075;55.682;37.564;2023-02-18T05:24:06;99174.47;;;-3.08;100.00
25084;BME280;13075;55.682;37.564;2023-02-18T05:26:33;99158.84;;;-2.67;100.00
25084;BME280;13075;55.682;37.564;2023-02-18T05:28:59;99167.34;;;-2.54;100.00
25084;BME280;13075;55.682;37.564;2023-02-18T05:31:24;99153.84;;;-2.70;100.00
25084;BME280;13075;55.682;37.564;2023-02-18T05:33:50;99156.06;;;-2.04;100.00
25084;BME280;13075;55.682;37.564;2023-02-18T05:36:16;99152.91;;;-2.28;100.00
25084;BME280;13075;55.682;37.564;2023-02-18T05:38:41;99151.44;;;-2.41;100.00
25084;BME280;13075;55.682;37.564;2023-02-18T05:41:07;99137.06;;;-2.47;100.00
25084;BME280;13075;55.682;37.564;2023-02-18T05:43:32;99143.31;;;-2.18;100.00
25084;BME280;13075;55.682;37.564;2023-02-18T05:46:21;99122.72;;;-2.02;100.00
25084;BME280;13075;55.682;37.564;2023-02-18T05:48:47;99125.94;;;-2.39;100.00
25084;BME280;13075;55.682;37.564;2023-02-18T05:51:13;99117.44;;;-2.73;100.00
25084;BME280;13075;55.682;37.564;2023-02-18T05:53:38;99123.13;;;-2.68;100.00
25084;BME280;13075;55.682;37.564;2023-02-18T05:56:04;99119.22;;;-3.26;100.00
25084;BME280;13075;55.682;37.564;2023-02-18T05:58:30;99102.53;;;-2.62;100.00
25084;BME280;13075;55.682;37.564;2023-02-18T06:00:56;99111.94;;;-2.29;100.00
25084;BME280;13075;55.682;37.564;2023-02-18T06:03:21;99107.22;;;-2.14;100.00
25084;BME280;13075;55.682;37.564;2023-02-18T06:05:50;99102.31;;;-1.98;100.00
25084;BME280;13075;55.682;37.564;2023-02-18T06:08:16;99106.00;;;-2.01;100.00
25084;BME280;13075;55.682;37.564;2023-02-18T06:10:41;99093.34;;;-1.96;100.00
25084;BME280;13075;55.682;37.564;2023-02-18T06:13:07;99096.41;;;-1.91;100.00
25084;BME280;13075;55.682;37.564;2023-02-18T06:15:33;99103.06;;;-2.37;100.00
25084;BME280;13075;55.682;37.564;2023-02-18T06:17:58;99083.47;;;-2.22;100.00
25084;BME280;13075;55.682;37.564;2023-02-18T06:20:24;99087.16;;;-1.95;100.00
25084;BME280;13075;55.682;37.564;2023-02-18T06:22:50;99072.25;;;-1.45;100.00
25084;BME280;13075;55.682;37.564;2023-02-18T06:25:15;99068.28;;;-2.19;100.00
25084;BME280;13075;55.682;37.564;2023-02-18T06:27:41;99079.97;;;-1.93;100.00
25084;BME280;13075;55.682;37.564;2023-02-18T06:30:07;99048.59;;;-1.73;100.00
25084;BME280;13075;55.682;37.564;2023-02-18T06:32:33;99060.38;;;-1.10;100.00
25084;BME280;13075;55.682;37.564;2023-02-18T06:34:58;99058.59;;;-1.19;100.00
25084;BME280;13075;55.682;37.564;2023-02-18T06:37:24;99059.00;;;-1.14;100.00
25084;BME280;13075;55.682;37.564;2023-02-18T06:39:50;99059.97;;;-1.35;100.00
25084;BME280;13075;55.682;37.564;2023-02-18T06:42:15;99062.88;;;-2.57;100.00
25084;BME280;13075;55.682;37.564;2023-02-18T06:44:41;99076.09;;;-3.00;100.00
25084;BME280;13075;55.682;37.564;2023-02-18T06:47:06;99056.78;;;-2.58;100.00
25084;BME280;13075;55.682;37.564;2023-02-18T06:49:32;99049.59;;;-2.05;100.00
25084;BME280;13075;55.682;37.564;2023-02-18T06:51:58;99041.25;;;-1.79;100.00
25084;BME280;13075;55.682;37.564;2023-02-18T06:54:23;99031.91;;;-1.53;100.00
25084;BME280;13075;55.682;37.564;2023-02-18T06:56:49;99028.22;;;-2.00;100.00
25084;BME280;13075;55.682;37.564;2023-02-18T06:59:15;99040.63;;;-1.34;100.00
25084;BME280;13075;55.682;37.564;2023-02-18T07:01:41;99030.56;;;-1.19;100.00
25084;BME280;13075;55.682;37.564;2023-02-18T07:04:07;99009.84;;;-1.51;100.00
25084;BME280;13075;55.682;37.564;2023-02-18T07:06:32;99012.97;;;-0.90;100.00
25084;BME280;13075;55.682;37.564;2023-02-18T07:08:58;99018.13;;;-0.42;100.00
25084;BME280;13075;55.682;37.564;2023-02-18T07:11:24;99006.78;;;-1.37;100.00
25084;BME280;13075;55.682;37.564;2023-02-18T07:13:49;99023.91;;;-1.13;100.00
25084;BME280;13075;55.682;37.564;2023-02-18T07:16:15;99000.97;;;-0.92;100.00
25084;BME280;13075;55.682;37.564;2023-02-18T07:18:40;99003.31;;;-0.99;100.00
25084;BME280;13075;55.682;37.564;2023-02-18T07:21:06;98990.78;;;-0.22;100.00
25084;BME280;13075;55.682;37.564;2023-02-18T07:23:32;98983.31;;;-1.86;100.00
25084;BME280;13075;55.682;37.564;2023-02-18T07:26:08;98986.91;;;-1.49;100.00
25084;BME280;13075;55.682;37.564;2023-02-18T07:28:34;98978.28;;;-0.84;100.00
25084;BME280;13075;55.682;37.564;2023-02-18T07:31:00;99004.03;;;-2.23;100.00
25084;BME280;13075;55.682;37.564;2023-02-18T07:33:26;99005.72;;;-2.42;100.00
25084;BME280;13075;55.682;37.564;2023-02-18T07:35:54;98968.22;;;-2.03;100.00
25084;BME280;13075;55.682;37.564;2023-02-18T07:38:20;98963.28;;;-1.20;100.00
25084;BME280;13075;55.682;37.564;2023-02-18T07:40:46;98948.34;;;-2.15;100.00
25084;BME280;13075;55.682;37.564;2023-02-18T07:43:12;98950.88;;;-0.62;100.00
25084;BME280;13075;55.682;37.564;2023-02-18T07:45:38;98938.41;;;-0.33;100.00
25084;BME280;13075;55.682;37.564;2023-02-18T07:48:04;98934.97;;;0.65;98.87
25084;BME280;13075;55.682;37.564;2023-02-18T07:50:30;98942.56;;;0.93;87.16
25084;BME280;13075;55.682;37.564;2023-02-18T07:53:05;98931.75;;;0.18;93.06
25084;BME280;13075;55.682;37.564;2023-02-18T07:55:31;98938.91;;;-0.02;95.88
25084;BME280;13075;55.682;37.564;2023-02-18T07:58:24;98946.97;;;-0.58;100.00
25084;BME280;13075;55.682;37.564;2023-02-18T08:00:51;98939.06;;;-0.21;100.00
25084;BME280;13075;55.682;37.564;2023-02-18T08:03:25;98930.88;;;-0.73;100.00
25084;BME280;13075;55.682;37.564;2023-02-18T08:05:52;98921.09;;;-0.80;100.00
25084;BME280;13075;55.682;37.564;2023-02-18T08:08:21;98920.81;;;-0.50;100.00
25084;BME280;13075;55.682;37.564;2023-02-18T08:10:48;98910.59;;;0.62;100.00
25084;BME280;13075;55.682;37.564;2023-02-18T08:13:14;98901.59;;;-0.06;100.00
25084;BME280;13075;55.682;37.564;2023-02-18T08:15:40;98894.03;;;-0.36;100.00
25084;BME280;13075;55.682;37.564;2023-02-18T08:18:07;98890.66;;;-0.28;100.00
25084;BME280;13075;55.682;37.564;2023-02-18T08:20:37;98892.88;;;-0.06;100.00
25084;BME280;13075;55.682;37.564;2023-02-18T08:23:03;98881.91;;;-0.02;100.00
25084;BME280;13075;55.682;37.564;2023-02-18T08:25:29;98894.41;;;0.14;100.00
25084;BME280;13075;55.682;37.564;2023-02-18T08:27:55;98896.03;;;-0.47;100.00
25084;BME280;13075;55.682;37.564;2023-02-18T08:30:21;98884.00;;;-0.05;100.00
25084;BME280;13075;55.682;37.564;2023-02-18T08:32:46;98875.91;;;-0.12;100.00
25084;BME280;13075;55.682;37.564;2023-02-18T08:35:12;98878.59;;;0.75;100.00
25084;BME280;13075;55.682;37.564;2023-02-18T08:37:38;98874.84;;;-0.36;100.00
25084;BME280;13075;55.682;37.564;2023-02-18T08:40:05;98874.84;;;-0.36;100.00
25084;BME280;13075;55.682;37.564;2023-02-18T08:42:31;98870.56;;;0.16;100.00
25084;BME280;13075;55.682;37.564;2023-02-18T08:44:56;98853.69;;;0.87;100.00
25084;BME280;13075;55.682;37.564;2023-02-18T08:47:22;98851.38;;;0.58;100.00
25084;BME280;13075;55.682;37.564;2023-02-18T08:49:48;98851.63;;;0.73;100.00
25084;BME280;13075;55.682;37.564;2023-02-18T08:52:14;98839.78;;;1.03;100.00
25084;BME280;13075;55.682;37.564;2023-02-18T08:54:39;98839.63;;;0.27;100.00
25084;BME280;13075;55.682;37.564;2023-02-18T08:57:05;98848.22;;;0.55;100.00
25084;BME280;13075;55.682;37.564;2023-02-18T08:59:30;98833.56;;;-0.09;100.00
25084;BME280;13075;55.682;37.564;2023-02-18T09:01:56;98824.03;;;0.85;100.00
25084;BME280;13075;55.682;37.564;2023-02-18T09:04:21;98819.06;;;0.48;100.00
25084;BME280;13075;55.682;37.564;2023-02-18T09:06:48;98826.13;;;0.05;100.00
25084;BME280;13075;55.682;37.564;2023-02-18T09:09:16;98801.56;;;1.41;100.00
25084;BME280;13075;55.682;37.564;2023-02-18T09:11:42;98825.78;;;0.25;100.00
25084;BME280;13075;55.682;37.564;2023-02-18T09:14:08;98793.78;;;1.23;100.00
25084;BME280;13075;55.682;37.564;2023-02-18T09:16:33;98799.72;;;0.91;100.00
25084;BME280;13075;55.682;37.564;2023-02-18T09:18:59;98786.84;;;1.22;100.00
25084;BME280;13075;55.682;37.564;2023-02-18T09:21:25;98785.94;;;0.97;100.00
25084;BME280;13075;55.682;37.564;2023-02-18T09:23:51;98790.38;;;0.97;100.00
25084;BME280;13075;55.682;37.564;2023-02-18T09:26:18;98780.50;;;0.65;100.00
25084;BME280;13075;55.682;37.564;2023-02-18T09:28:50;98775.34;;;0.81;100.00
25084;BME280;13075;55.682;37.564;2023-02-18T09:31:18;98769.72;;;0.76;100.00
25084;BME280;13075;55.682;37.564;2023-02-18T09:33:48;98757.88;;;0.72;100.00
25084;BME280;13075;55.682;37.564;2023-02-18T09:36:15;98763.84;;;0.82;100.00
25084;BME280;13075;55.682;37.564;2023-02-18T09:38:41;98754.69;;;1.52;100.00
25084;BME280;13075;55.682;37.564;2023-02-18T09:43:57;98754.00;;;0.33;100.00
25084;BME280;13075;55.682;37.564;2023-02-18T09:46:40;98744.25;;;0.51;100.00
25084;BME280;13075;55.682;37.564;2023-02-18T09:49:11;98734.56;;;0.93;100.00
25084;BME280;13075;55.682;37.564;2023-02-18T09:51:39;98725.44;;;1.21;98.50
25084;BME280;13075;55.682;37.564;2023-02-18T09:54:10;98724.47;;;1.22;95.24
25084;BME280;13075;55.682;37.564;2023-02-18T09:56:37;98721.41;;;1.67;95.08
25084;BME280;13075;55.682;37.564;2023-02-18T09:59:05;98719.88;;;0.41;100.00
25084;BME280;13075;55.682;37.564;2023-02-18T10:01:39;98714.22;;;1.11;100.00
25084;BME280;13075;55.682;37.564;2023-02-18T10:04:19;98708.06;;;0.87;100.00
25084;BME280;13075;55.682;37.564;2023-02-18T10:06:50;98693.97;;;1.04;100.00
25084;BME280;13075;55.682;37.564;2023-02-18T10:11:52;98688.81;;;0.19;100.00
25084;BME280;13075;55.682;37.564;2023-02-18T10:14:19;98692.50;;;0.26;100.00
25084;BME280;13075;55.682;37.564;2023-02-18T10:16:46;98687.03;;;0.19;100.00
25084;BME280;13075;55.682;37.564;2023-02-18T10:19:39;98680.69;;;0.30;100.00
25084;BME280;13075;55.682;37.564;2023-02-18T10:22:07;98710.81;;;0.10;100.00
25084;BME280;13075;55.682;37.564;2023-02-18T10:24:37;98665.72;;;0.30;100.00
25084;BME280;13075;55.682;37.564;2023-02-18T10:27:06;98666.09;;;0.85;100.00
25084;BME280;13075;55.682;37.564;2023-02-18T10:29:33;98652.63;;;0.38;100.00
25084;BME280;13075;55.682;37.564;2023-02-18T10:42:41;98640.44;;;0.87;100.00
25084;BME280;13075;55.682;37.564;2023-02-18T10:50:34;98626.44;;;0.79;100.00
25084;BME280;13075;55.682;37.564;2023-02-18T10:53:11;98639.28;;;-0.20;100.00
25084;BME280;13075;55.682;37.564;2023-02-18T10:55:43;98643.41;;;0.09;100.00
25084;BME280;13075;55.682;37.564;2023-02-18T10:58:42;98644.50;;;-0.02;100.00
25084;BME280;13075;55.682;37.564;2023-02-18T11:01:19;98615.03;;;0.62;100.00
25084;BME280;13075;55.682;37.564;2023-02-18T11:03:46;98647.25;;;0.56;100.00
25084;BME280;13075;55.682;37.564;2023-02-18T11:08:49;98609.88;;;0.44;100.00
25084;BME280;13075;55.682;37.564;2023-02-18T11:11:20;98604.06;;;0.25;100.00
25084;BME280;13075;55.682;37.564;2023-02-18T11:13:55;98614.63;;;-0.01;100.00
25084;BME280;13075;55.682;37.564;2023-02-18T11:16:42;98614.34;;;0.10;100.00
25084;BME280;13075;55.682;37.564;2023-02-18T11:19:31;98600.34;;;0.43;100.00
25084;BME280;13075;55.682;37.564;2023-02-18T11:22:33;98586.56;;;0.16;100.00
25084;BME280;13075;55.682;37.564;2023-02-18T11:25:05;98581.53;;;0.96;100.00
25084;BME280;13075;55.682;37.564;2023-02-18T11:27:45;98575.00;;;1.00;100.00
25084;BME280;13075;55.682;37.564;2023-02-18T11:30:20;98577.13;;;1.13;100.00
25084;BME280;13075;55.682;37.564;2023-02-18T11:32:54;98575.63;;;0.86;100.00
25084;BME280;13075;55.682;37.564;2023-02-18T11:35:24;98579.69;;;-0.45;100.00
25084;BME280;13075;55.682;37.564;2023-02-18T11:37:51;98566.78;;;0.37;100.00
25084;BME280;13075;55.682;37.564;2023-02-18T11:40:24;98564.53;;;0.09;100.00
25084;BME280;13075;55.682;37.564;2023-02-18T11:42:51;98564.13;;;0.29;100.00
25084;BME280;13075;55.682;37.564;2023-02-18T11:45:31;98554.63;;;-0.06;100.00
25084;BME280;13075;55.682;37.564;2023-02-18T11:48:15;98545.50;;;0.97;100.00
25084;BME280;13075;55.682;37.564;2023-02-18T11:50:41;98543.03;;;1.36;98.18
25084;BME280;13075;55.682;37.564;2023-02-18T11:53:36;98546.50;;;0.96;100.00
25084;BME280;13075;55.682;37.564;2023-02-18T11:56:05;98543.31;;;-0.32;100.00
25084;BME280;13075;55.682;37.564;2023-02-18T11:58:37;98541.91;;;0.24;100.00
25084;BME280;13075;55.682;37.564;2023-02-18T12:01:12;98531.28;;;0.33;100.00
25084;BME280;13075;55.682;37.564;2023-02-18T12:06:33;98524.38;;;0.40;100.00
25084;BME280;13075;55.682;37.564;2023-02-18T12:09:04;98526.72;;;0.51;100.00
25084;BME280;13075;55.682;37.564;2023-02-18T12:11:38;98517.09;;;0.26;100.00
25084;BME280;13075;55.682;37.564;2023-02-18T12:14:16;98514.03;;;0.47;100.00
25084;BME280;13075;55.682;37.564;2023-02-18T12:27:27;98515.78;;;-0.53;100.00
25084;BME280;13075;55.682;37.564;2023-02-18T12:30:59;98505.88;;;0.08;100.00
25084;BME280;13075;55.682;37.564;2023-02-18T12:48:04;98482.63;;;0.45;100.00
25084;BME280;13075;55.682;37.564;2023-02-18T12:53:34;98484.16;;;-0.36;100.00
25084;BME280;13075;55.682;37.564;2023-02-18T12:59:03;98483.47;;;-0.12;100.00
25084;BME280;13075;55.682;37.564;2023-02-18T13:04:24;98458.31;;;0.68;100.00
25084;BME280;13075;55.682;37.564;2023-02-18T13:07:15;98464.00;;;0.15;100.00
25084;BME280;13075;55.682;37.564;2023-02-18T13:10:16;98471.69;;;0.08;100.00
25084;BME280;13075;55.682;37.564;2023-02-18T13:13:21;98458.72;;;0.07;100.00
25084;BME280;13075;55.682;37.564;2023-02-18T13:16:05;98462.84;;;-0.67;100.00
25084;BME280;13075;55.682;37.564;2023-02-18T13:18:38;98452.97;;;0.11;100.00
25084;BME280;13075;55.682;37.564;2023-02-18T13:21:14;98470.03;;;-0.43;100.00
25084;BME280;13075;55.682;37.564;2023-02-18T13:23:54;98459.19;;;-0.06;100.00
25084;BME280;13075;55.682;37.564;2023-02-18T13:26:21;98449.91;;;-0.26;100.00
25084;BME280;13075;55.682;37.564;2023-02-18T13:31:21;98431.88;;;-0.05;100.00
25084;BME280;13075;55.682;37.564;2023-02-18T13:33:58;98467.31;;;-0.25;100.00
25084;BME280;13075;55.682;37.564;2023-02-18T13:41:26;98450.28;;;-0.05;100.00
25084;BME280;13075;55.682;37.564;2023-02-18T13:43:52;98424.84;;;-0.05;100.00
25084;BME280;13075;55.682;37.564;2023-02-18T13:46:20;98428.59;;;-0.07;100.00
25084;BME280;13075;55.682;37.564;2023-02-18T13:49:10;98424.91;;;0.68;100.00
25084;BME280;13075;55.682;37.564;2023-02-18T13:51:40;98413.69;;;-0.48;100.00
25084;BME280;13075;55.682;37.564;2023-02-18T13:57:12;98419.94;;;-0.49;100.00
25084;BME280;13075;55.682;37.564;2023-02-18T13:59:44;98412.78;;;-0.73;100.00
25084;BME280;13075;55.682;37.564;2023-02-18T14:07:36;98404.25;;;-0.25;100.00
25084;BME280;13075;55.682;37.564;2023-02-18T14:13:02;98394.34;;;0.67;100.00
25084;BME280;13075;55.682;37.564;2023-02-18T14:28:43;98376.75;;;0.19;100.00
25084;BME280;13075;55.682;37.564;2023-02-18T14:37:06;98365.84;;;-0.26;100.00
25084;BME280;13075;55.682;37.564;2023-02-18T14:43:01;98374.03;;;-0.29;100.00
25084;BME280;13075;55.682;37.564;2023-02-18T14:45:54;98366.38;;;-0.65;100.00
25084;BME280;13075;55.682;37.564;2023-02-18T14:51:00;98369.53;;;-0.53;100.00
25084;BME280;13075;55.682;37.564;2023-02-18T14:53:27;98352.72;;;0.06;100.00
25084;BME280;13075;55.682;37.564;2023-02-18T14:55:57;98357.84;;;0.08;100.00
25084;BME280;13075;55.682;37.564;2023-02-18T14:58:29;98389.19;;;-0.65;100.00
25084;BME280;13075;55.682;37.564;2023-02-18T15:00:57;98360.28;;;-0.65;100.00
25084;BME280;13075;55.682;37.564;2023-02-18T15:03:25;98363.41;;;-0.62;100.00
25084;BME280;13075;55.682;37.564;2023-02-18T15:05:51;98354.16;;;-0.32;100.00
25084;BME280;13075;55.682;37.564;2023-02-18T15:08:21;98363.97;;;-0.50;100.00
25084;BME280;13075;55.682;37.564;2023-02-18T15:11:00;98374.81;;;-1.12;100.00
25084;BME280;13075;55.682;37.564;2023-02-18T15:13:39;98349.25;;;-0.77;100.00
25084;BME280;13075;55.682;37.564;2023-02-18T15:16:33;98345.66;;;-0.10;100.00
25084;BME280;13075;55.682;37.564;2023-02-18T15:19:06;98338.03;;;-0.45;100.00
25084;BME280;13075;55.682;37.564;2023-02-18T15:21:39;98318.34;;;-0.33;100.00
25084;BME280;13075;55.682;37.564;2023-02-18T15:24:29;98324.13;;;-0.29;100.00
25084;BME280;13075;55.682;37.564;2023-02-18T15:26:59;98307.41;;;0.20;100.00